Time;durP1;ratioP1;P1;durP2;ratioP2;P2;SDS_P1;SDS_P2;PMS_P1;PMS_P2;Temp;Humidity;BMP_temperature;BMP_pressure;BME280_temperature;BME280_humidity;BME280_pressure;Samples;Min_cycle;Max_cycle;Signal;HPM_P1;HPM_P2
2022/05/05 00:02:22;;;;;;;;;;;;;;;10.79;35.63;95720.41;5012486;28;20144;-62
2022/05/05 00:04:47;;;;;;;;;;;;;;;10.14;35.35;95717.91;5012040;28;20021;-62
2022/05/05 00:07:12;;;;;;;;;;;;;;;10.33;38.18;95724.63;5007309;28;20042;-62
2022/05/05 00:09:38;;;;;;;;;;;;;;;10.06;35.99;95726.75;5011522;28;20016;-62
2022/05/05 00:14:47;;;;;;;;;;;;;;;10.58;37.95;95724.50;5022963;28;19967;-61
2022/05/05 00:17:12;;;;;;;;;;;;;;;10.65;37.25;95721.16;5007944;28;19984;-61
2022/05/05 00:19:41;;;;;;;;;;;;;;;10.68;37.35;95723.47;5019180;28;20024;-62
2022/05/05 00:22:07;;;;;;;;;;;;;;;10.72;37.76;95720.25;5009929;28;20303;-62
2022/05/05 00:24:32;;;;;;;;;;;;;;;10.70;36.81;95722.28;5017488;28;19985;-62
2022/05/05 00:26:58;;;;;;;;;;;;;;;10.63;37.41;95721.31;5008794;28;19965;-62
2022/05/05 00:29:23;;;;;;;;;;;;;;;10.62;38.19;95711.69;5010864;28;19958;-62
2022/05/05 00:31:48;;;;;;;;;;;;;;;10.56;38.03;95715.88;5016232;28;20570;-62
2022/05/05 00:34:13;;;;;;;;;;;;;;;10.50;38.00;95716.56;5013571;28;19976;-63
2022/05/05 00:36:39;;;;;;;;;;;;;;;10.49;38.57;95720.25;5005220;28;20065;-63
2022/05/05 00:39:04;;;;;;;;;;;;;;;10.44;37.56;95722.59;5013768;28;19958;-63
2022/05/05 00:41:33;;;;;;;;;;;;;;;10.40;38.66;95721.28;5007494;28;19962;-62
2022/05/05 00:43:58;;;;;;;;;;;;;;;10.33;39.26;95721.97;5014301;28;19991;-62
2022/05/05 00:46:24;;;;;;;;;;;;;;;10.23;39.55;95729.34;5013799;28;19961;-62
2022/05/05 00:48:50;;;;;;;;;;;;;;;10.13;39.67;95720.75;5017753;28;20022;-62
2022/05/05 00:51:16;;;;;;;;;;;;;;;10.04;39.40;95719.91;5008721;28;20231;-62
2022/05/05 00:53:41;;;;;;;;;;;;;;;9.89;36.72;95720.63;5006072;28;20148;-63
2022/05/05 00:56:07;;;;;;;;;;;;;;;9.77;40.58;95724.66;5008420;28;20381;-63
2022/05/05 00:58:32;;;;;;;;;;;;;;;9.68;40.33;95727.34;5004048;28;20257;-63
2022/05/05 01:00:58;;;;;;;;;;;;;;;9.58;40.29;95726.69;5013019;28;19991;-63
2022/05/05 01:03:23;;;;;;;;;;;;;;;9.51;40.43;95731.84;5021443;28;19987;-63
2022/05/05 01:05:49;;;;;;;;;;;;;;;9.52;40.21;95722.06;5020827;28;19975;-62
2022/05/05 01:08:14;;;;;;;;;;;;;;;9.45;40.21;95728.03;5018326;28;19980;-62
2022/05/05 01:10:39;;;;;;;;;;;;;;;9.43;40.46;95729.19;5016767;28;20016;-62
2022/05/05 01:13:04;;;;;;;;;;;;;;;9.39;40.29;95725.22;5013991;28;19988;-62
2022/05/05 01:15:30;;;;;;;;;;;;;;;9.34;39.87;95723.06;5015867;28;20156;-62
2022/05/05 01:17:56;;;;;;;;;;;;;;;9.31;40.80;95723.38;5020846;28;19987;-62
2022/05/05 01:20:24;;;;;;;;;;;;;;;9.29;40.90;95728.06;5023071;28;20003;-63
2022/05/05 01:22:49;;;;;;;;;;;;;;;9.26;37.53;95728.38;5020840;28;19979;-63
2022/05/05 01:28:10;;;;;;;;;;;;;;;9.33;37.21;95727.56;5022647;28;20014;-63
2022/05/05 01:30:36;;;;;;;;;;;;;;;9.32;38.28;95719.75;5024544;28;20414;-63
2022/05/05 01:33:01;;;;;;;;;;;;;;;9.26;37.03;95720.41;5020939;28;19990;-63
2022/05/05 01:35:27;;;;;;;;;;;;;;;9.19;36.47;95717.59;5016293;28;19999;-63
2022/05/05 01:37:52;;;;;;;;;;;;;;;9.16;37.41;95724.09;5023178;28;20072;-63
2022/05/05 01:40:17;;;;;;;;;;;;;;;9.17;38.25;95727.56;5023687;28;19988;-63
2022/05/05 01:42:43;;;;;;;;;;;;;;;9.13;36.89;95720.91;5023436;28;19976;-63
2022/05/05 01:45:08;;;;;;;;;;;;;;;9.16;38.34;95724.09;5022473;28;20045;-63
2022/05/05 01:47:34;;;;;;;;;;;;;;;9.16;38.44;95721.44;5023443;28;19987;-63
2022/05/05 01:50:00;;;;;;;;;;;;;;;9.19;37.95;95730.88;5022471;28;19968;-63
2022/05/05 01:52:25;;;;;;;;;;;;;;;9.18;36.28;95735.34;5011642;28;19991;-63
2022/05/05 01:54:50;;;;;;;;;;;;;;;9.20;36.84;95728.06;5022886;28;20452;-63
2022/05/05 01:57:15;;;;;;;;;;;;;;;9.13;36.53;95736.84;5022987;28;20497;-63
2022/05/05 01:59:41;;;;;;;;;;;;;;;9.11;37.98;95734.34;5023890;28;19985;-63
2022/05/05 02:02:06;;;;;;;;;;;;;;;9.12;36.68;95735.19;5006259;28;20060;-63
2022/05/05 02:04:31;;;;;;;;;;;;;;;8.85;36.07;95734.47;5022686;28;20427;-63
2022/05/05 02:06:56;;;;;;;;;;;;;;;9.01;36.83;95745.13;5020260;28;19976;-63
2022/05/05 02:09:22;;;;;;;;;;;;;;;9.05;36.76;95737.69;5019640;28;20081;-63
2022/05/05 02:11:47;;;;;;;;;;;;;;;9.12;36.18;95738.69;5009907;28;20019;-63
2022/05/05 02:14:12;;;;;;;;;;;;;;;9.08;36.64;95734.72;5023474;28;20525;-63
2022/05/05 02:16:37;;;;;;;;;;;;;;;9.13;36.66;95729.72;5023109;28;19997;-63
2022/05/05 02:19:03;;;;;;;;;;;;;;;9.13;36.48;95728.88;5024032;28;19967;-63
2022/05/05 02:21:28;;;;;;;;;;;;;;;9.01;36.11;95731.06;5010827;28;19973;-63
2022/05/05 02:23:53;;;;;;;;;;;;;;;9.02;36.73;95733.53;5021598;28;20486;-63
2022/05/05 02:26:18;;;;;;;;;;;;;;;9.03;36.81;95729.88;5024140;28;20394;-63
2022/05/05 02:28:43;;;;;;;;;;;;;;;9.10;38.66;95737.16;5019222;28;20050;-63
2022/05/05 02:31:09;;;;;;;;;;;;;;;9.15;37.60;95729.56;5014492;28;20269;-63
2022/05/05 02:33:34;;;;;;;;;;;;;;;9.19;37.02;95734.34;5020961;28;19962;-63
2022/05/05 02:38:43;;;;;;;;;;;;;;;8.89;37.32;95735.81;5020469;28;20067;-63
2022/05/05 02:41:09;;;;;;;;;;;;;;;8.89;36.52;95738.47;5013312;28;20077;-63
2022/05/05 02:43:34;;;;;;;;;;;;;;;9.01;36.57;95733.72;5011867;28;19985;-63
2022/05/05 02:45:59;;;;;;;;;;;;;;;8.88;37.06;95734.97;5024109;28;20022;-63
2022/05/05 02:48:24;;;;;;;;;;;;;;;8.95;36.76;95733.34;5022319;28;19992;-63
2022/05/05 02:50:49;;;;;;;;;;;;;;;9.02;36.94;95738.84;5017547;28;19975;-63
2022/05/05 02:55:58;;;;;;;;;;;;;;;8.81;36.48;95734.78;5016655;28;20388;-64
2022/05/05 02:58:25;;;;;;;;;;;;;;;9.10;37.88;95735.34;5009440;28;19969;-63
2022/05/05 03:00:50;;;;;;;;;;;;;;;9.17;35.77;95733.69;5020558;28;19998;-64
2022/05/05 03:03:15;;;;;;;;;;;;;;;9.44;35.60;95733.50;5018558;28;19999;-64
2022/05/05 03:05:41;;;;;;;;;;;;;;;9.42;35.20;95738.19;5017357;28;19958;-64
2022/05/05 03:08:06;;;;;;;;;;;;;;;9.28;36.73;95732.53;5005399;28;20066;-64
2022/05/05 03:10:32;;;;;;;;;;;;;;;9.51;36.46;95734.50;5011498;28;20026;-64
2022/05/05 03:12:57;;;;;;;;;;;;;;;9.58;35.09;95732.84;5007105;28;20000;-64
2022/05/05 03:15:22;;;;;;;;;;;;;;;9.77;35.58;95729.97;5020435;28;20118;-64
2022/05/05 03:17:48;;;;;;;;;;;;;;;9.85;35.08;95730.78;5007818;28;20007;-64
2022/05/05 03:20:13;;;;;;;;;;;;;;;9.91;36.88;95731.94;5020291;28;20070;-64
2022/05/05 03:22:38;;;;;;;;;;;;;;;9.93;34.02;95732.56;5020679;28;19963;-64
2022/05/05 03:25:04;;;;;;;;;;;;;;;10.09;34.59;95731.72;5019782;28;20033;-64
2022/05/05 03:27:29;;;;;;;;;;;;;;;10.14;34.58;95733.88;5007687;28;20658;-64
2022/05/05 03:29:54;;;;;;;;;;;;;;;10.16;34.25;95733.72;5020047;28;19975;-64
2022/05/05 03:32:19;;;;;;;;;;;;;;;10.34;34.24;95730.81;5015238;28;19994;-64
2022/05/05 03:34:45;;;;;;;;;;;;;;;10.40;34.46;95737.25;5022075;28;20025;-64
2022/05/05 03:37:10;;;;;;;;;;;;;;;10.40;34.62;95732.75;5022582;28;20470;-64
2022/05/05 03:39:35;;;;;;;;;;;;;;;10.41;35.45;95738.91;5021703;28;19998;-64
2022/05/05 03:42:01;;;;;;;;;;;;;;;10.34;35.13;95744.91;5007602;28;20277;-63
2022/05/05 03:44:26;;;;;;;;;;;;;;;10.20;34.97;95743.00;5020659;28;20075;-63
2022/05/05 03:46:51;;;;;;;;;;;;;;;10.17;35.06;95752.13;5008030;28;20016;-59
2022/05/05 03:49:16;;;;;;;;;;;;;;;9.94;34.25;95746.72;5020771;28;19987;-58
2022/05/05 03:51:42;;;;;;;;;;;;;;;9.78;34.33;95745.75;5009528;28;20338;-58
2022/05/05 03:54:07;;;;;;;;;;;;;;;9.69;35.93;95749.44;5019023;28;20028;-58
2022/05/05 03:56:33;;;;;;;;;;;;;;;9.72;35.04;95754.41;5019383;28;19992;-58
2022/05/05 03:58:58;;;;;;;;;;;;;;;9.64;34.71;95759.72;5020917;28;20014;-59
2022/05/05 04:01:23;;;;;;;;;;;;;;;9.72;33.73;95755.22;5018463;28;19982;-59
2022/05/05 04:03:48;;;;;;;;;;;;;;;9.64;36.21;95768.53;5019377;28;19997;-58
2022/05/05 04:06:16;;;;;;;;;;;;;;;9.36;34.81;95766.25;5019701;28;20037;-59
2022/05/05 04:08:42;;;;;;;;;;;;;;;9.50;34.33;95762.09;5020643;28;20661;-59
2022/05/05 04:11:07;;;;;;;;;;;;;;;9.30;34.98;95762.44;5016402;28;19972;-58
2022/05/05 04:13:32;;;;;;;;;;;;;;;9.24;36.30;95763.09;5011644;28;19967;-58
2022/05/05 04:15:58;;;;;;;;;;;;;;;9.02;34.35;95759.25;5019462;28;20382;-58
2022/05/05 04:18:23;;;;;;;;;;;;;;;9.12;33.83;95759.94;5021179;28;19965;-58
2022/05/05 04:20:48;;;;;;;;;;;;;;;8.97;34.68;95762.41;5019315;28;20750;-58
2022/05/05 04:23:13;;;;;;;;;;;;;;;8.99;35.83;95768.38;5018824;28;20571;-58
2022/05/05 04:25:42;;;;;;;;;;;;;;;9.10;36.28;95763.72;5020894;28;19966;-58
2022/05/05 04:28:07;;;;;;;;;;;;;;;9.17;36.32;95776.19;5018085;28;20296;-58
2022/05/05 04:30:33;;;;;;;;;;;;;;;9.17;37.04;95778.03;5024049;28;20349;-62
2022/05/05 04:32:58;;;;;;;;;;;;;;;9.05;36.36;95774.88;5023315;28;20389;-62
2022/05/05 04:35:23;;;;;;;;;;;;;;;9.04;39.39;95784.66;5016495;28;19989;-62
2022/05/05 04:37:49;;;;;;;;;;;;;;;8.98;35.54;95781.81;5009115;28;20024;-62
2022/05/05 04:40:14;;;;;;;;;;;;;;;8.94;37.44;95775.97;5005572;28;20056;-62
2022/05/05 04:42:39;;;;;;;;;;;;;;;9.03;35.64;95777.69;5013806;28;19977;-63
2022/05/05 04:45:05;;;;;;;;;;;;;;;9.18;37.03;95782.34;5022495;28;19988;-63
2022/05/05 04:47:31;;;;;;;;;;;;;;;9.23;37.35;95782.69;5011436;28;19988;-63
2022/05/05 04:49:57;;;;;;;;;;;;;;;9.14;36.56;95783.66;5023654;28;19974;-63
2022/05/05 04:52:23;;;;;;;;;;;;;;;9.28;35.05;95787.50;5010262;28;19994;-63
2022/05/05 04:54:48;;;;;;;;;;;;;;;9.58;36.14;95785.16;5023547;28;20431;-63
2022/05/05 04:57:13;;;;;;;;;;;;;;;9.83;34.83;95793.94;5012345;28;20042;-63
2022/05/05 04:59:38;;;;;;;;;;;;;;;10.02;34.90;95797.22;5023938;28;20043;-64
2022/05/05 05:02:04;;;;;;;;;;;;;;;10.16;35.34;95805.53;5013447;28;20475;-65
2022/05/05 05:04:30;;;;;;;;;;;;;;;10.46;34.65;95803.09;5021727;28;19987;-63
2022/05/05 05:06:55;;;;;;;;;;;;;;;10.67;34.28;95807.00;5021493;28;19966;-63
2022/05/05 05:09:20;;;;;;;;;;;;;;;10.78;34.28;95808.44;5020719;28;19982;-62
2022/05/05 05:11:45;;;;;;;;;;;;;;;10.83;33.68;95806.09;5011156;28;20036;-62
2022/05/05 05:14:11;;;;;;;;;;;;;;;10.98;34.02;95809.66;5019539;28;20475;-63
2022/05/05 05:16:36;;;;;;;;;;;;;;;11.13;33.90;95809.75;5014234;28;20465;-63
2022/05/05 05:19:02;;;;;;;;;;;;;;;11.22;33.56;95815.06;5022862;28;20047;-63
2022/05/05 05:21:27;;;;;;;;;;;;;;;11.32;34.89;95822.81;5003192;28;19998;-64
2022/05/05 05:23:52;;;;;;;;;;;;;;;11.57;32.63;95823.44;5022434;28;20075;-64
2022/05/05 05:26:18;;;;;;;;;;;;;;;11.83;32.13;95819.53;5009461;28;19963;-64
2022/05/05 05:28:43;;;;;;;;;;;;;;;11.91;32.57;95834.66;5022074;28;20333;-64
2022/05/05 05:31:08;;;;;;;;;;;;;;;11.87;32.58;95839.50;5009525;28;20069;-63
2022/05/05 05:33:33;;;;;;;;;;;;;;;11.69;34.11;95833.69;5021063;28;19972;-63
2022/05/05 05:35:59;;;;;;;;;;;;;;;10.92;31.93;95834.34;5022159;28;20089;-63
2022/05/05 05:38:24;;;;;;;;;;;;;;;11.54;32.22;95837.13;5021412;28;20680;-63
2022/05/05 05:40:49;;;;;;;;;;;;;;;11.32;32.65;95846.78;5013683;28;20459;-63
2022/05/05 05:43:15;;;;;;;;;;;;;;;11.49;32.57;95848.31;5010709;28;20044;-63
2022/05/05 05:45:40;;;;;;;;;;;;;;;11.71;30.97;95845.00;5020008;28;20349;-63
2022/05/05 05:48:06;;;;;;;;;;;;;;;11.72;32.94;95850.16;5016067;28;20207;-63
2022/05/05 05:50:31;;;;;;;;;;;;;;;11.82;30.65;95851.72;5014247;28;20492;-63
2022/05/05 05:52:57;;;;;;;;;;;;;;;12.09;33.35;95853.03;5006333;28;20221;-63
2022/05/05 05:55:22;;;;;;;;;;;;;;;11.36;31.50;95851.56;5016102;28;19983;-63
2022/05/05 05:57:47;;;;;;;;;;;;;;;11.70;32.39;95851.34;5020136;28;19988;-64
2022/05/05 06:00:13;;;;;;;;;;;;;;;12.15;32.31;95848.78;5018414;28;19993;-63
2022/05/05 06:05:22;;;;;;;;;;;;;;;12.07;33.80;95852.34;5014669;28;20248;-64
2022/05/05 06:07:48;;;;;;;;;;;;;;;12.19;33.10;95854.59;5015911;28;19992;-64
2022/05/05 06:10:13;;;;;;;;;;;;;;;12.31;32.68;95846.97;5018154;28;20144;-64
2022/05/05 06:12:38;;;;;;;;;;;;;;;12.28;31.83;95850.84;5018670;28;20418;-64
2022/05/05 06:15:04;;;;;;;;;;;;;;;12.41;30.81;95860.88;5019987;28;20084;-64
2022/05/05 06:17:29;;;;;;;;;;;;;;;11.92;30.89;95862.97;5016175;28;20026;-63
2022/05/05 06:19:54;;;;;;;;;;;;;;;12.19;32.38;95862.59;5009419;28;19990;-63
2022/05/05 06:22:20;;;;;;;;;;;;;;;12.25;31.61;95864.53;5021757;28;20022;-63
2022/05/05 06:24:45;;;;;;;;;;;;;;;12.41;32.89;95864.38;5019617;28;20220;-63
2022/05/05 06:27:10;;;;;;;;;;;;;;;12.15;33.83;95864.81;5010378;28;20390;-64
2022/05/05 06:29:35;;;;;;;;;;;;;;;12.31;32.31;95871.84;5019916;28;19963;-64
2022/05/05 06:32:01;;;;;;;;;;;;;;;13.37;30.28;95861.03;5012984;28;20023;-65
2022/05/05 06:34:26;;;;;;;;;;;;;;;13.48;28.70;95862.38;5012403;28;19976;-62
2022/05/05 06:36:51;;;;;;;;;;;;;;;13.53;29.56;95862.63;5010066;28;19993;-62
2022/05/05 06:39:16;;;;;;;;;;;;;;;13.41;31.46;95862.31;5009049;28;20075;-62
2022/05/05 06:41:43;;;;;;;;;;;;;;;13.15;30.22;95869.00;5015479;28;20366;-63
2022/05/05 06:44:09;;;;;;;;;;;;;;;12.19;31.18;95873.28;5013095;28;20179;-63
2022/05/05 06:46:34;;;;;;;;;;;;;;;11.71;32.36;95875.16;5009703;28;20019;-63
2022/05/05 06:48:59;;;;;;;;;;;;;;;11.12;32.64;95880.03;5017271;28;20025;-63
2022/05/05 06:51:24;;;;;;;;;;;;;;;10.90;33.68;95880.78;5009071;28;20043;-62
2022/05/05 06:53:50;;;;;;;;;;;;;;;10.85;32.93;95886.66;5007277;28;20250;-62
2022/05/05 06:56:15;;;;;;;;;;;;;;;10.74;34.97;95883.34;5009916;28;19993;-62
2022/05/05 06:58:40;;;;;;;;;;;;;;;11.59;33.20;95890.75;5008105;28;19974;-62
2022/05/05 07:05:23;;;;;;;;;;;;;;;11.97;31.43;95891.81;5012521;28;19996;-62
2022/05/05 07:06:35;;;;;;;;;;;;;;;12.22;32.26;95891.59;5015946;28;19970;-62
2022/05/05 07:11:44;;;;;;;;;;;;;;;12.50;30.13;95886.47;4996600;28;20182;-63
2022/05/05 07:14:09;;;;;;;;;;;;;;;12.92;30.31;95888.69;5014763;28;19969;-63
2022/05/05 07:16:35;;;;;;;;;;;;;;;12.57;30.85;95889.22;5014568;28;19995;-63
2022/05/05 07:19:00;;;;;;;;;;;;;;;13.37;29.18;95887.78;5003976;28;19964;-63
2022/05/05 07:21:25;;;;;;;;;;;;;;;13.45;30.48;95898.34;5011112;28;19980;-63
2022/05/05 07:23:50;;;;;;;;;;;;;;;13.10;29.18;95901.66;5008878;28;19981;-63
2022/05/05 07:26:16;;;;;;;;;;;;;;;13.79;28.73;95904.88;5005600;28;19968;-62
2022/05/05 07:28:41;;;;;;;;;;;;;;;13.55;28.99;95903.38;4999275;28;20100;-62
2022/05/05 07:31:06;;;;;;;;;;;;;;;13.89;28.92;95903.72;5013613;28;20075;-61
2022/05/05 07:33:34;;;;;;;;;;;;;;;13.79;29.02;95909.38;5003449;28;20504;-63
2022/05/05 07:36:01;;;;;;;;;;;;;;;13.52;29.30;95903.75;5013132;28;20113;-62
2022/05/05 07:38:26;;;;;;;;;;;;;;;13.37;30.67;95912.69;5015269;28;19964;-62
2022/05/05 07:40:51;;;;;;;;;;;;;;;13.21;30.05;95905.69;5016746;28;20215;-63
2022/05/05 07:43:16;;;;;;;;;;;;;;;13.79;29.89;95914.72;5002524;28;19967;-62
2022/05/05 07:45:42;;;;;;;;;;;;;;;14.26;29.97;95914.31;5016474;28;20003;-64
2022/05/05 07:48:07;;;;;;;;;;;;;;;14.72;28.86;95915.66;5007543;28;19984;-63
2022/05/05 07:50:32;;;;;;;;;;;;;;;15.04;27.75;95916.09;5006795;28;19961;-63
2022/05/05 07:52:58;;;;;;;;;;;;;;;15.10;27.71;95917.13;5010670;28;19980;-63
2022/05/05 07:55:23;;;;;;;;;;;;;;;15.02;27.33;95920.00;5010132;28;20017;-63
2022/05/05 07:57:48;;;;;;;;;;;;;;;14.97;28.00;95926.78;5010880;28;19977;-63
2022/05/05 08:00:14;;;;;;;;;;;;;;;15.10;28.16;95920.63;5014525;28;20048;-63
2022/05/05 08:02:39;;;;;;;;;;;;;;;14.42;27.49;95919.38;5015730;28;20018;-63
2022/05/05 08:05:05;;;;;;;;;;;;;;;14.40;27.41;95925.97;5010475;28;20526;-63
2022/05/05 08:07:30;;;;;;;;;;;;;;;14.65;28.92;95925.53;5009461;28;19983;-63
2022/05/05 08:09:56;;;;;;;;;;;;;;;14.19;29.44;95933.88;5015553;28;20432;-63
2022/05/05 08:12:21;;;;;;;;;;;;;;;13.65;29.23;95929.81;5014639;28;20153;-63
2022/05/05 08:14:46;;;;;;;;;;;;;;;13.43;29.22;95932.50;5019703;28;20407;-63
2022/05/05 08:17:11;;;;;;;;;;;;;;;13.12;31.04;95931.69;5016367;28;20058;-63
2022/05/05 08:19:36;;;;;;;;;;;;;;;13.10;31.12;95931.06;5013761;28;19993;-63
2022/05/05 08:22:02;;;;;;;;;;;;;;;12.54;32.96;95946.50;5010602;28;20009;-63
2022/05/05 08:29:58;;;;;;;;;;;;;;;13.63;30.51;95951.41;5010951;28;20453;-64
2022/05/05 08:32:24;;;;;;;;;;;;;;;14.23;28.03;95942.31;5016512;28;20017;-64
2022/05/05 08:34:49;;;;;;;;;;;;;;;14.07;29.69;95948.78;5008314;28;20275;-63
2022/05/05 08:37:14;;;;;;;;;;;;;;;14.48;28.74;95944.56;5017759;28;19995;-63
2022/05/05 08:39:39;;;;;;;;;;;;;;;14.74;29.01;95951.16;5006784;28;20248;-63
2022/05/05 08:42:05;;;;;;;;;;;;;;;15.10;28.14;95947.44;5014367;28;20041;-63
2022/05/05 08:44:30;;;;;;;;;;;;;;;15.41;27.12;95948.00;5018885;28;20072;-63
2022/05/05 08:46:55;;;;;;;;;;;;;;;15.31;27.39;95960.94;5008766;28;20078;-63
2022/05/05 08:49:21;;;;;;;;;;;;;;;15.54;26.74;95962.47;5017490;28;20020;-63
2022/05/05 08:51:48;;;;;;;;;;;;;;;15.30;28.07;95959.31;5012482;28;20030;-63
2022/05/05 08:54:17;;;;;;;;;;;;;;;15.65;26.48;95964.63;5010667;28;19958;-63
2022/05/05 08:56:50;;;;;;;;;;;;;;;15.57;26.05;95964.81;5010773;28;20082;-63
2022/05/05 08:59:16;;;;;;;;;;;;;;;16.15;25.31;95959.97;5021391;28;20221;-63
2022/05/05 09:01:41;;;;;;;;;;;;;;;16.50;25.35;95971.38;5015818;28;20435;-63
2022/05/05 09:04:06;;;;;;;;;;;;;;;16.62;24.90;95974.25;5018547;28;20300;-69
2022/05/05 09:06:42;;;;;;;;;;;;;;;16.85;25.74;95964.06;5012800;28;19977;-68
2022/05/05 09:09:15;;;;;;;;;;;;;;;16.93;25.78;95966.53;5018655;28;20075;-67
2022/05/05 09:11:40;;;;;;;;;;;;;;;16.66;26.01;95976.53;5002285;28;20048;-67
2022/05/05 09:14:06;;;;;;;;;;;;;;;17.00;25.70;95970.03;5016542;28;20000;-66
2022/05/05 09:16:32;;;;;;;;;;;;;;;16.94;24.70;95964.69;5014079;28;20550;-67
2022/05/05 09:19:01;;;;;;;;;;;;;;;17.61;25.12;95967.16;5014942;28;20423;-67
2022/05/05 09:21:34;;;;;;;;;;;;;;;17.57;25.05;95957.84;5017134;28;19939;-65
2022/05/05 09:26:43;;;;;;;;;;;;;;;16.55;25.34;95965.34;5018458;28;19962;-70
2022/05/05 09:29:18;;;;;;;;;;;;;;;17.06;25.77;95967.56;5021310;28;19972;-70
2022/05/05 09:31:43;;;;;;;;;;;;;;;16.84;26.52;95970.50;5021817;28;20184;-71
2022/05/05 09:34:16;;;;;;;;;;;;;;;17.40;25.43;95969.13;5021978;28;20052;-71
2022/05/05 09:36:42;;;;;;;;;;;;;;;17.89;24.58;95968.72;5015797;28;20358;-71
2022/05/05 09:39:08;;;;;;;;;;;;;;;18.60;24.31;95967.81;5014635;28;19943;-70
2022/05/05 09:41:34;;;;;;;;;;;;;;;19.33;21.49;95978.06;5004582;28;20073;-70
2022/05/05 09:44:00;;;;;;;;;;;;;;;19.59;20.61;95971.53;5022174;28;19983;-71
2022/05/05 09:46:25;;;;;;;;;;;;;;;19.90;20.92;95976.13;5020031;28;19986;-70
2022/05/05 09:48:51;;;;;;;;;;;;;;;19.24;20.97;95972.13;5021849;28;20001;-70
2022/05/05 09:51:16;;;;;;;;;;;;;;;17.70;22.52;95978.50;5019562;28;20606;-71
2022/05/05 09:59:14;;;;;;;;;;;;;;;19.82;20.96;95975.38;5019435;28;19953;-70
2022/05/05 10:01:41;;;;;;;;;;;;;;;19.07;21.89;95988.09;5021505;28;19971;-70
2022/05/05 10:04:06;;;;;;;;;;;;;;;19.01;23.29;95981.72;5021825;28;19987;-70
2022/05/05 10:06:32;;;;;;;;;;;;;;;19.19;21.17;95974.69;5021376;28;20273;-70
2022/05/05 10:09:04;;;;;;;;;;;;;;;19.62;22.37;95981.06;5015296;28;19961;-70
2022/05/05 10:11:30;;;;;;;;;;;;;;;19.31;21.44;95982.91;5021247;28;19958;-70
2022/05/05 10:13:56;;;;;;;;;;;;;;;19.62;21.91;95982.94;5020717;28;19937;-70
2022/05/05 10:16:21;;;;;;;;;;;;;;;19.78;21.88;95981.50;5019932;28;19969;-70
2022/05/05 10:18:47;;;;;;;;;;;;;;;19.91;22.25;95977.75;5021556;28;20298;-70
2022/05/05 10:21:31;;;;;;;;;;;;;;;20.18;21.97;95980.09;5020084;28;19985;-70
2022/05/05 10:23:58;;;;;;;;;;;;;;;20.43;21.14;95974.50;5021524;28;20290;-70
2022/05/05 10:26:23;;;;;;;;;;;;;;;20.76;19.84;95977.75;5019181;28;19932;-70
2022/05/05 10:28:49;;;;;;;;;;;;;;;21.06;20.19;95978.66;5020780;28;20495;-70
2022/05/05 10:31:30;;;;;;;;;;;;;;;21.17;20.69;95975.13;5020715;28;20442;-70
2022/05/05 10:33:59;;;;;;;;;;;;;;;21.54;19.13;95981.31;5021456;28;19939;-70
2022/05/05 10:36:24;;;;;;;;;;;;;;;21.62;19.37;95983.66;5017874;28;20573;-70
2022/05/05 10:38:50;;;;;;;;;;;;;;;21.29;20.31;95980.56;5010012;28;20036;-70
2022/05/05 10:41:36;;;;;;;;;;;;;;;21.16;20.10;95978.91;5019647;28;19948;-70
2022/05/05 10:44:23;;;;;;;;;;;;;;;21.14;20.13;95978.31;5016123;28;19932;-70
2022/05/05 10:46:51;;;;;;;;;;;;;;;21.19;19.55;95975.72;5020841;28;20323;-70
2022/05/05 10:49:38;;;;;;;;;;;;;;;21.11;20.40;95974.19;5020683;28;20223;-70
2022/05/05 10:52:10;;;;;;;;;;;;;;;21.04;20.80;95972.69;5020033;28;20390;-70
2022/05/05 10:54:38;;;;;;;;;;;;;;;21.22;19.96;95971.72;5019529;28;19941;-70
2022/05/05 10:57:22;;;;;;;;;;;;;;;21.11;20.45;95974.19;5014112;28;20184;-70
2022/05/05 11:00:06;;;;;;;;;;;;;;;21.26;20.69;95981.00;5020477;28;19943;-70
2022/05/05 11:02:32;;;;;;;;;;;;;;;21.37;19.83;95977.47;5008749;28;19951;-70
2022/05/05 11:05:16;;;;;;;;;;;;;;;21.47;20.45;95986.88;5020203;28;19925;-70
2022/05/05 11:07:43;;;;;;;;;;;;;;;21.32;20.14;95987.38;5009373;28;19960;-70
2022/05/05 11:10:08;;;;;;;;;;;;;;;21.27;19.31;95984.56;5015603;28;20544;-70
2022/05/05 11:12:34;;;;;;;;;;;;;;;21.14;19.76;95983.72;5018844;28;20011;-70
2022/05/05 11:23:39;;;;;;;;;;;;;;;20.73;19.29;95972.81;5020325;28;20004;-71
2022/05/05 11:26:05;;;;;;;;;;;;;;;21.66;18.61;95981.28;5014393;28;20015;-73
2022/05/05 11:28:30;;;;;;;;;;;;;;;21.52;18.94;95973.44;5018265;28;20543;-72
2022/05/05 11:30:55;;;;;;;;;;;;;;;21.07;19.35;95975.72;5020267;28;19955;-73
2022/05/05 11:33:21;;;;;;;;;;;;;;;21.61;19.08;95968.44;5020572;28;19982;-73
2022/05/05 11:35:56;;;;;;;;;;;;;;;21.70;18.64;95971.63;5019766;28;20624;-73
2022/05/05 11:38:22;;;;;;;;;;;;;;;21.37;18.86;95971.25;5016493;28;20377;-73
2022/05/05 11:40:47;;;;;;;;;;;;;;;21.73;17.99;95971.13;5022082;28;19998;-73
2022/05/05 11:45:56;;;;;;;;;;;;;;;21.12;20.13;95969.63;5026669;28;20003;-72
2022/05/05 11:48:21;;;;;;;;;;;;;;;20.73;20.60;95976.34;5026705;28;20054;-72
2022/05/05 11:50:47;;;;;;;;;;;;;;;19.69;21.57;95979.06;5026314;28;19949;-72
2022/05/05 11:53:18;;;;;;;;;;;;;;;20.21;21.12;95982.34;5025338;28;20038;-71
2022/05/05 11:55:45;;;;;;;;;;;;;;;18.97;23.48;95983.22;5026322;28;20437;-71
2022/05/05 12:01:36;;;;;;;;;;;;;;;19.30;21.32;95973.97;5025486;28;20292;-71
2022/05/05 12:04:00;;;;;;;;;;;;;;;18.59;22.86;95973.41;5026460;28;20727;-71
2022/05/05 12:06:25;;;;;;;;;;;;;;;18.98;22.39;95971.38;5023358;28;19989;-71
2022/05/05 12:08:50;;;;;;;;;;;;;;;18.98;23.09;95971.38;5006078;28;19960;-71
2022/05/05 12:11:15;;;;;;;;;;;;;;;19.06;21.78;95971.09;5024824;28;20584;-71
2022/05/05 12:13:41;;;;;;;;;;;;;;;18.84;22.60;95977.94;5026263;28;19979;-71
2022/05/05 12:16:06;;;;;;;;;;;;;;;18.87;22.68;95972.13;5024978;28;20004;-71
2022/05/05 12:18:31;;;;;;;;;;;;;;;19.41;20.74;95976.97;5025274;28;19967;-71
2022/05/05 12:20:57;;;;;;;;;;;;;;;19.50;21.79;95978.28;5024670;28;20410;-71
2022/05/05 12:23:24;;;;;;;;;;;;;;;19.43;20.94;95977.53;5026250;28;20089;-71
2022/05/05 12:25:49;;;;;;;;;;;;;;;19.30;20.95;95978.53;5026433;28;19943;-70
2022/05/05 12:28:15;;;;;;;;;;;;;;;19.43;20.42;95975.69;5025668;28;19962;-69
2022/05/05 12:30:43;;;;;;;;;;;;;;;18.60;21.44;95977.75;5012732;28;19977;-69
2022/05/05 12:33:09;;;;;;;;;;;;;;;18.74;21.12;95981.16;5026265;28;20447;-70
2022/05/05 12:35:35;;;;;;;;;;;;;;;18.81;21.87;95988.16;5025827;28;19973;-70
2022/05/05 12:38:01;;;;;;;;;;;;;;;18.99;21.27;95991.91;5021123;28;20456;-70
2022/05/05 12:40:26;;;;;;;;;;;;;;;19.02;22.51;95983.38;5023183;28;20073;-70
2022/05/05 12:42:58;;;;;;;;;;;;;;;19.44;22.64;95979.19;5014093;28;19937;-71
2022/05/05 12:45:29;;;;;;;;;;;;;;;19.64;21.52;95980.84;5023859;28;19957;-71
2022/05/05 12:47:55;;;;;;;;;;;;;;;19.97;20.82;95983.13;5026130;28;20016;-70
2022/05/05 12:50:27;;;;;;;;;;;;;;;19.93;21.76;95981.91;5023226;28;19956;-70
2022/05/05 13:01:04;;;;;;;;;;;;;;;19.05;22.74;95996.41;5022590;28;19985;-71
2022/05/05 13:03:29;;;;;;;;;;;;;;;19.13;21.58;95994.44;5023075;28;19960;-71
2022/05/05 13:05:54;;;;;;;;;;;;;;;18.72;23.01;95996.72;5021704;28;20057;-71
2022/05/05 13:08:19;;;;;;;;;;;;;;;18.58;22.67;95996.00;5014880;28;20371;-71
2022/05/05 13:10:46;;;;;;;;;;;;;;;18.40;23.67;95993.03;5014011;28;19953;-71
2022/05/05 13:13:12;;;;;;;;;;;;;;;17.96;25.15;96000.16;5022579;28;20055;-70
2022/05/05 13:15:37;;;;;;;;;;;;;;;17.63;25.65;96005.47;5022054;28;20053;-70
2022/05/05 13:18:03;;;;;;;;;;;;;;;17.27;26.11;96004.97;5022653;28;19987;-70
2022/05/05 13:20:28;;;;;;;;;;;;;;;17.09;26.64;96004.78;5022242;28;20001;-70
2022/05/05 13:22:54;;;;;;;;;;;;;;;16.93;26.26;95998.78;5021027;28;20009;-70
2022/05/05 13:25:19;;;;;;;;;;;;;;;17.05;26.60;95996.31;5022187;28;19990;-70
2022/05/05 13:27:44;;;;;;;;;;;;;;;16.94;26.63;95991.56;5022121;28;20047;-71
2022/05/05 13:30:10;;;;;;;;;;;;;;;16.70;27.06;95999.25;5022034;28;20252;-70
2022/05/05 13:32:35;;;;;;;;;;;;;;;16.81;26.86;95995.09;5022322;28;20068;-70
2022/05/05 13:35:00;;;;;;;;;;;;;;;16.73;27.71;95996.16;5022641;28;19956;-70
2022/05/05 13:37:26;;;;;;;;;;;;;;;16.90;26.34;95996.56;5021763;28;20074;-71
2022/05/05 13:39:51;;;;;;;;;;;;;;;17.20;25.83;95993.38;5015700;28;20232;-71
2022/05/05 13:42:16;;;;;;;;;;;;;;;16.82;26.95;95999.47;5022287;28;20065;-71